CheckWX is a tool to help pilots better visualize weather data.  It is not intended as a substitute for an official pre-flight weather briefing.

05:51:12 UTC

DNKN METAR
Mallam Aminu International Airport
Kano, Nigeria
Current

51 mins ago

DNKN 240500Z 00000KT CAVOK 18/05 Q1012 NOSIG
Observed
Feb-24 @ 05:00 UTC
Visibility
10,000+ meters
Flight Rules
VFR
Cloud Levels
  • Clear skies
Temperature
18°C / 64°F
Dewpoint
C / 41°F
Humidity
43%
Altimeter
29.88" Hg
Pressure
1011.92 hPa